AirNav   Textron
 
 399 users online  

9B1 Marlboro Airport
Marlboro, Massachusetts, USA

GOING TO MARLBORO?


FAA INFORMATION EFFECTIVE 09 NOVEMBER 2017

Location

FAA Identifier: 9B1
Lat/Long: 42-20-35.4000N / 071-30-32.4000W
42-20.590000N / 071-30.540000W
42.3431667 / -71.5090000
(estimated)
Elevation: 285 ft. / 87 m (estimated)
Variation: 15W (1985)
From city: 2 miles E of MARLBORO, MA
Time zone: UTC -5 (UTC -4 during Daylight Saving Time)
Zip code: 01752

Airport Operations

Airport use: Open to the public
Activation date: 04/1940
Control tower: no
ARTCC: BOSTON CENTER
FSS: BRIDGEPORT FLIGHT SERVICE STATION
NOTAMs facility: BDR (NOTAM-D service available)
Attendance: 0800-DUSK
Pattern altitude: 1385 ft. MSL
Wind indicator: yes
Segmented circle: no

Airport Communications

CTAF/UNICOM: 122.8
WX ASOS at BED (12 nm NE): PHONE 781-274-9733
WX ASOS at FIT (17 nm NW): 135.175 (978-343-9121)
WX ASOS at ORH (17 nm W): PHONE 508-795-7546
WX ASOS at OWD (18 nm SE): PHONE 781-762-4314
  • CLNC DLVY THRU BRIDGEPORT RADIO (BDR) 1-866-293-5149.

Nearby radio navigation aids

VOR radial/distance  VOR name  Freq  Var
BOSr284/23.0BOSTON VOR/DME112.7016W
GDMr131/27.2GARDNER VOR/DME110.6014W
PUTr047/27.6PUTNAM VOR/DME117.4014W
LWMr233/30.1LAWRENCE VOR/DME112.5015W
MHTr206/32.1MANCHESTER VOR/DME114.4015W
PVDr009/37.3PROVIDENCE VOR/DME115.6014W

 
NDB name  Hdg/Dist  Freq  Var  ID
BEDDS229/9.833216WBE -... .
SHAKER HILL261/16.125116WSKR ... -.- .-.
FITCHBURG154/16.636515WFIT ..-. .. -
TAUNTON338/35.622716WTAN - .- -.
MARSHFIELD308/39.836816WIMR .. -- .-.

Airport Services

Fuel available: 100LL
Parking: tiedowns
Airframe service: MAJOR
Powerplant service: MAJOR
Bottled oxygen: NONE
Bulk oxygen: NONE

Runway Information

Runway 14/32

Dimensions: 1659 x 45 ft. / 506 x 14 m
Surface: asphalt, in fair condition
Weight bearing capacity: 
Single wheel: 9.0
RUNWAY 14  RUNWAY 32
Latitude: 42-20.660635N42-20.518642N
Longitude: 071-30.696752W071-30.382200W
Elevation: 278.3 ft.273.1 ft.
Gradient: 0.3% UP
Traffic pattern: leftleft
Markings: basic, in fair conditionbasic, in fair condition
Obstructions: 80 ft. trees, 600 ft. from runway, 63 ft. left of centerline, 5:1 slope to clear
+15' ROAD & 4' FENCE ALONG ROAD.
72 ft. trees, 200 ft. from runway, 1:1 slope to clear
RY 32 HAS +72 FT TREES ON CNTRLN 200 FT FM THLD.

Airport Ownership and Management from official FAA records

Ownership: Privately-owned
Owner: SANDY STETSON
685 FARM ROAD
MARLBORO, MA 01752
Phone 508-485-0069
Manager: SANDY STETSON
685 FARM ROAD
MARLBORO, MA 01752
Phone 508-485-0069

Airport Operational Statistics

Aircraft based on the field: 25
Single engine airplanes: 24
Helicopters: 1
    
Aircraft operations: avg 48/day *
96% local general aviation
3% transient general aviation
<1% air taxi
<1% military
* for 12-month period ending 27 April 2016

Additional Remarks

NO NIGHT OPNS.
NO TOUCH & GO LNDGS.
NO LOW APCHS BELOW 500 FT AGL.
WILDLIFE ON AND IN VCTY OF AIRPORT

Instrument Procedures

There are no published instrument procedures at 9B1.

Some nearby airports with instrument procedures:

6B6 - Minute Man Air Field (7 nm N)
KBED - Laurence G Hanscom Field Airport (12 nm NE)
1B6 - Hopedale Industrial Park Airport (14 nm S)
KFIT - Fitchburg Municipal Airport (17 nm NW)
KORH - Worcester Regional Airport (17 nm W)
KOWD - Norwood Memorial Airport (18 nm SE)
 
Loc | Ops | Rwys | IFR | FBO | Links
Com | Nav | Svcs | Stats | Notes


 
Area around 9B1 (Marlboro Airport)
 
Road maps at: MapQuest Bing Google
 
Aerial photo
WARNING: Photo may not be current or correct
Aerial photo of 9B1 (Marlboro Airport)
Photo by Pete Chaisson, Portland Flight Services
Photo taken 15-May-2015
looking west.

Do you have a better or more recent aerial photo of Marlboro Airport that you would like to share? If so, please send us your photo.

 
Sectional chart

 
Airport distance calculator
Flying to Marlboro Airport? Find the distance to fly.

From to 9B1

Sunrise and sunset
Times for 24-Nov-2017
 Local
(UTC-5)
 Zulu
(UTC)
Morning civil twilight06:1811:18
Sunrise06:4911:49
Sunset16:1721:17
Evening civil twilight16:4821:48

Current date and time
Zulu (UTC)  24-Nov-2017 06:10:13
Local (UTC-5)  24-Nov-2017 01:10:13
 
METAR
KBED 
12nm NE 
240556Z AUTO 25003KT 10SM CLR M04/M07 A2997 RMK AO2 SLP163 T10441067 11011 21044 58001
KFIT 
16nm NW 
240552Z AUTO 15003KT 10SM CLR M01/M05 A2996 RMK AO2 SLP150 T10061050 10017 21022 58004
KORH 
17nm W 
240554Z AUTO 25007KT 10SM FEW095 M02/M08 A2994 RMK AO2 SLP148 T10171078 11006 21022 58001
KOWD 
18nm SE 
240553Z AUTO 00000KT 10SM CLR M04/M06 A2999 RMK AO2 SLP156 I1000 I6000 T10391061 11011 21044 50001
KMQE 
19nm SE 
240156Z AUTO 29007KT 00/M07 A2994 RMK AO1 SLP156 T00001072
KBOS 
22nm E 
240554Z 23005KT 10SM CLR 00/M06 A2998 RMK AO2 SLP152 T00001061 10044 20000 50001
TAF
KBED 
12nm NE 
240533Z 2406/2506 VRB03KT P6SM FEW090 FM241400 22006KT P6SM SKC
KORH 
17nm W 
240533Z 2406/2506 26010KT P6SM SKC FM241800 22010KT P6SM SKC
NOTAMs
Click for the latest NOTAMs
NOTAMs are issued by the DoD/FAA and will open in a separate window not controlled by AirNav.

 

 
 

Would you like to see your business listed on this page?

 If your business provides an interesting product or service to pilots, flight crews, aircraft, or users of the Marlboro Airport, you should consider listing it here.  To start the listing process, click on the button below
 
Add a business
 

Other Pages about Marlboro Airport

www.marlboroairport.org
 
Update a link
 
Copyright © AirNav, LLC. All rights reserved. Privacy Policy  Contact